Time;durP1;ratioP1;P1;durP2;ratioP2;P2;SDS_P1;SDS_P2;PMS_P1;PMS_P2;Temp;Humidity;BMP_temperature;BMP_pressure;BME280_temperature;BME280_humidity;BME280_pressure;Samples;Min_cycle;Max_cycle;Signal;HPM_P1;HPM_P2
2022/06/24 00:01:42;;;;;;;2.35;1.08;;;22.00;82.70;;;;;;5084346;28;20539;-75
2022/06/24 00:04:08;;;;;;;2.50;1.30;;;22.40;82.90;;;;;;5088727;28;20044;-75
2022/06/24 00:06:46;;;;;;;2.85;1.60;;;22.00;82.60;;;;;;5071870;28;20044;-78
2022/06/24 00:09:16;;;;;;;2.95;1.08;;;21.90;82.20;;;;;;5071357;28;20040;-76
2022/06/24 00:11:42;;;;;;;8.27;1.70;;;21.90;82.40;;;;;;5089291;28;20032;-76
2022/06/24 00:14:13;;;;;;;1.17;0.95;;;21.80;82.60;;;;;;5052330;28;20130;-77
2022/06/24 00:17:00;;;;;;;1.75;1.58;;;21.80;83.20;;;;;;5084740;28;20139;-76
2022/06/24 00:19:28;;;;;;;4.03;1.30;;;21.90;84.20;;;;;;5072044;28;20043;-76
2022/06/24 00:22:08;;;;;;;2.10;1.38;;;21.80;84.20;;;;;;5070688;28;20044;-78
2022/06/24 00:24:36;;;;;;;4.07;1.58;;;21.70;84.70;;;;;;5067379;28;20044;-76
2022/06/24 00:27:04;;;;;;;2.60;1.30;;;21.70;84.70;;;;;;5054479;28;20048;-76
2022/06/24 00:29:33;;;;;;;1.65;1.20;;;21.70;85.20;;;;;;5066608;28;20055;-76
2022/06/24 00:32:06;;;;;;;1.35;1.08;;;21.70;85.50;;;;;;5086345;28;20040;-77
2022/06/24 00:34:36;;;;;;;2.40;1.30;;;21.70;85.60;;;;;;5068676;28;20040;-76
2022/06/24 00:37:22;;;;;;;3.70;1.25;;;21.60;85.80;;;;;;5070935;28;20105;-77
2022/06/24 00:39:47;;;;;;;1.45;1.13;;;21.60;86.30;;;;;;5067012;28;20036;-77
2022/06/24 00:42:14;;;;;;;1.38;1.27;;;21.60;86.40;;;;;;5087711;28;20051;-76
2022/06/24 00:44:48;;;;;;;1.52;1.42;;;21.50;86.20;;;;;;5065631;28;20037;-77
2022/06/24 00:47:15;;;;;;;5.03;1.85;;;21.50;86.10;;;;;;5071678;28;20044;-77
2022/06/24 00:49:42;;;;;;;5.13;1.73;;;21.40;85.80;;;;;;5064202;28;20037;-78
2022/06/24 00:52:10;;;;;;;3.08;1.50;;;21.50;85.60;;;;;;5068906;28;20043;-76
2022/06/24 00:54:36;;;;;;;4.50;1.70;;;21.30;85.30;;;;;;5070708;28;20105;-77
2022/06/24 00:57:03;;;;;;;1.63;1.50;;;21.20;85.20;;;;;;5053634;28;20141;-76
2022/06/24 00:59:34;;;;;;;6.53;1.90;;;21.20;85.60;;;;;;5089235;28;20043;-76
2022/06/24 01:02:04;;;;;;;3.08;1.63;;;21.20;85.60;;;;;;5089169;28;20040;-76
2022/06/24 01:04:31;;;;;;;5.35;1.77;;;21.10;86.50;;;;;;5053768;28;20513;-76
2022/06/24 01:06:57;;;;;;;3.42;1.83;;;21.10;86.00;;;;;;5066624;28;20063;-75
2022/06/24 01:09:23;;;;;;;2.83;1.25;;;21.00;85.70;;;;;;5070328;28;20499;-76
2022/06/24 01:11:49;;;;;;;4.22;1.60;;;21.00;85.50;;;;;;5085841;28;20062;-76
2022/06/24 01:14:14;;;;;;;2.63;1.02;;;21.00;85.70;;;;;;5104373;28;20507;-76
2022/06/24 01:16:41;;;;;;;2.97;1.50;;;21.00;85.60;;;;;;5070413;28;20036;-75
2022/06/24 01:19:11;;;;;;;4.43;1.50;;;21.00;85.50;;;;;;5069583;28;20542;-75
2022/06/24 01:21:49;;;;;;;3.95;1.40;;;20.90;85.40;;;;;;5069362;28;20093;-76
2022/06/24 01:24:16;;;;;;;6.60;1.50;;;21.00;86.10;;;;;;5051661;28;20044;-75
2022/06/24 01:26:45;;;;;;;2.95;1.90;;;21.40;85.70;;;;;;5086240;28;20043;-76
2022/06/24 01:29:15;;;;;;;2.90;1.70;;;20.90;85.30;;;;;;5088551;28;20036;-76
2022/06/24 01:31:48;;;;;;;3.00;1.88;;;20.90;85.30;;;;;;5051038;28;20432;-76
2022/06/24 01:34:14;;;;;;;1.63;1.25;;;20.80;85.10;;;;;;5070076;28;20169;-77
2022/06/24 01:36:40;;;;;;;4.80;1.73;;;20.80;85.40;;;;;;5050379;28;20503;-76
2022/06/24 01:39:07;;;;;;;3.63;1.50;;;20.80;85.50;;;;;;5051814;28;20068;-76
2022/06/24 01:41:33;;;;;;;2.90;1.45;;;21.20;86.00;;;;;;5084313;28;20085;-76
2022/06/24 01:43:59;;;;;;;2.25;1.30;;;21.00;86.20;;;;;;5069723;28;20127;-75
2022/06/24 01:46:25;;;;;;;3.65;1.50;;;20.80;86.30;;;;;;5065298;28;20088;-77
2022/06/24 01:48:51;;;;;;;2.45;1.17;;;20.80;86.30;;;;;;5084937;28;20055;-77
2022/06/24 01:51:18;;;;;;;2.88;1.10;;;20.80;86.30;;;;;;5052338;28;20492;-78
2022/06/24 01:53:44;;;;;;;1.92;1.38;;;20.70;86.50;;;;;;5052383;28;20043;-78
2022/06/24 01:56:10;;;;;;;3.15;1.40;;;20.70;87.00;;;;;;5049922;28;20418;-76
2022/06/24 01:58:36;;;;;;;2.80;1.38;;;20.60;87.20;;;;;;5068500;28;20068;-77
2022/06/24 02:01:02;;;;;;;2.80;1.52;;;20.60;87.60;;;;;;5082891;28;20043;-77
2022/06/24 02:03:31;;;;;;;3.13;1.25;;;20.60;87.60;;;;;;5088448;28;20043;-76
2022/06/24 02:06:03;;;;;;;2.75;0.98;;;20.60;87.70;;;;;;5082173;28;20037;-77
2022/06/24 02:08:29;;;;;;;1.55;1.45;;;20.50;88.00;;;;;;5041363;28;20036;-76
2022/06/24 02:13:38;;;;;;;;;;;20.50;88.60;;;;;;5086170;28;20048;-77
2022/06/24 02:16:06;;;;;;;3.40;1.35;;;21.10;88.60;;;;;;5068834;28;19931;-78
2022/06/24 02:18:32;;;;;;;3.45;1.50;;;20.40;88.60;;;;;;5065065;28;20034;-77
2022/06/24 02:21:00;;;;;;;3.17;1.35;;;20.40;89.00;;;;;;5069046;28;20431;-78
2022/06/24 02:23:26;;;;;;;2.88;1.67;;;20.40;89.20;;;;;;5084199;28;20109;-78
2022/06/24 02:25:53;;;;;;;1.65;1.55;;;20.40;89.50;;;;;;5085499;28;20055;-78
2022/06/24 02:28:19;;;;;;;4.15;1.65;;;20.40;89.80;;;;;;5102955;28;20044;-77
2022/06/24 02:30:46;;;;;;;1.60;1.50;;;20.40;90.00;;;;;;5052740;28;20040;-75
2022/06/24 02:33:13;;;;;;;5.13;1.58;;;20.30;90.00;;;;;;5084961;28;20048;-75
2022/06/24 02:35:40;;;;;;;1.75;1.35;;;20.40;90.00;;;;;;5068607;28;20051;-76
2022/06/24 02:38:06;;;;;;;5.78;1.80;;;20.30;90.10;;;;;;5084054;28;20091;-76
2022/06/24 02:40:47;;;;;;;2.38;1.50;;;20.40;90.30;;;;;;5080325;28;20044;-76
2022/06/24 02:43:16;;;;;;;2.92;1.42;;;20.30;90.40;;;;;;5047717;28;20132;-76
2022/06/24 02:46:08;;;;;;;2.83;1.55;;;20.30;90.50;;;;;;5068817;28;20036;-75
2022/06/24 02:48:35;;;;;;;3.70;1.38;;;20.30;90.70;;;;;;5064159;28;20491;-76
2022/06/24 02:51:03;;;;;;;5.22;1.52;;;20.30;90.70;;;;;;5068893;28;20344;-77
2022/06/24 02:53:30;;;;;;;3.80;1.58;;;20.30;90.80;;;;;;5066720;28;20036;-76
2022/06/24 02:56:10;;;;;;;2.50;1.55;;;20.20;90.90;;;;;;5068813;28;20052;-75
2022/06/24 02:58:37;;;;;;;2.78;1.88;;;20.30;91.00;;;;;;5079314;28;20067;-76
2022/06/24 03:01:04;;;;;;;3.15;1.42;;;20.30;91.10;;;;;;5052418;28;20043;-76
2022/06/24 03:03:30;;;;;;;4.40;1.55;;;20.30;91.20;;;;;;5065737;28;20048;-76
2022/06/24 03:05:56;;;;;;;5.72;1.80;;;20.30;91.30;;;;;;5051976;28;20036;-76
2022/06/24 03:08:23;;;;;;;3.40;1.75;;;20.30;91.30;;;;;;5087873;28;20036;-76
2022/06/24 03:10:50;;;;;;;6.97;2.10;;;20.60;91.50;;;;;;5068071;28;20159;-76
2022/06/24 03:13:17;;;;;;;4.30;1.67;;;20.30;91.50;;;;;;5068527;28;20499;-76
2022/06/24 03:15:43;;;;;;;10.48;2.13;;;20.20;91.50;;;;;;5068633;28;20036;-76
2022/06/24 03:18:11;;;;;;;1.90;1.70;;;20.20;91.50;;;;;;5063606;28;20044;-77
2022/06/24 03:20:37;;;;;;;2.00;1.80;;;20.20;91.60;;;;;;5052347;28;20036;-76
2022/06/24 03:23:02;;;;;;;3.25;1.73;;;20.10;91.80;;;;;;5066401;28;20513;-77
2022/06/24 03:25:28;;;;;;;8.35;1.67;;;20.20;92.20;;;;;;5065202;28;20044;-76
2022/06/24 03:27:53;;;;;;;7.22;1.70;;;20.10;92.30;;;;;;5087179;28;20040;-76
2022/06/24 03:30:19;;;;;;;1.60;1.50;;;20.20;92.50;;;;;;5070741;28;20039;-76
2022/06/24 03:32:45;;;;;;;3.67;1.95;;;20.20;92.70;;;;;;5069889;28;20040;-76
2022/06/24 03:35:14;;;;;;;3.58;1.77;;;20.20;92.70;;;;;;5072821;28;20071;-77
2022/06/24 03:37:39;;;;;;;5.70;1.40;;;20.20;92.50;;;;;;5071444;28;20502;-75
2022/06/24 03:40:06;;;;;;;4.70;1.35;;;20.10;92.60;;;;;;5054725;28;20048;-77
2022/06/24 03:42:31;;;;;;;3.45;1.45;;;20.20;92.90;;;;;;5056101;28;20044;-75
2022/06/24 03:44:57;;;;;;;5.72;1.55;;;20.10;93.10;;;;;;5069401;28;20051;-75
2022/06/24 03:47:23;;;;;;;3.70;1.52;;;20.10;93.10;;;;;;5090145;28;20070;-76
2022/06/24 03:49:51;;;;;;;5.63;1.90;;;20.10;93.10;;;;;;5055864;28;20047;-77
2022/06/24 03:52:17;;;;;;;3.05;1.65;;;20.20;93.00;;;;;;5072630;28;20103;-76
2022/06/24 03:54:43;;;;;;;3.58;2.08;;;20.10;93.10;;;;;;5085557;28;20411;-76
2022/06/24 03:57:09;;;;;;;4.28;2.10;;;20.10;93.30;;;;;;5072761;28;20123;-75
2022/06/24 03:59:34;;;;;;;4.50;2.10;;;20.00;93.20;;;;;;5055258;28;20075;-75
2022/06/24 04:02:00;;;;;;;3.78;1.85;;;20.00;93.40;;;;;;5055240;28;20051;-76
2022/06/24 04:04:26;;;;;;;7.15;2.40;;;20.00;93.50;;;;;;5073297;28;20039;-76
2022/06/24 04:06:51;;;;;;;5.53;2.42;;;20.00;93.60;;;;;;5089837;28;20097;-74
2022/06/24 04:09:18;;;;;;;4.45;1.85;;;20.10;93.70;;;;;;5070633;28;20175;-76
2022/06/24 04:11:47;;;;;;;7.55;2.05;;;20.10;93.80;;;;;;5075374;28;20107;-77
2022/06/24 04:14:12;;;;;;;7.00;1.80;;;20.00;94.00;;;;;;5074633;28;20056;-78
2022/06/24 04:16:38;;;;;;;3.80;1.73;;;20.00;94.20;;;;;;5072639;28;20119;-76
2022/06/24 04:19:04;;;;;;;3.80;2.00;;;20.10;94.40;;;;;;5071970;28;20044;-77
2022/06/24 04:21:31;;;;;;;10.30;2.35;;;20.00;94.60;;;;;;5054941;28;20559;-76
2022/06/24 04:23:57;;;;;;;6.15;2.13;;;20.70;94.90;;;;;;5054868;28;20376;-78
2022/06/24 04:26:23;;;;;;;2.83;1.90;;;20.00;94.50;;;;;;5055436;28;20043;-76
2022/06/24 04:28:50;;;;;;;2.83;2.10;;;20.00;94.90;;;;;;5089242;28;20043;-78
2022/06/24 04:31:16;;;;;;;5.68;2.45;;;20.00;94.70;;;;;;5054922;28;20044;-78
2022/06/24 04:33:41;;;;;;;2.95;2.50;;;20.00;94.50;;;;;;5086869;28;20067;-77
2022/06/24 04:36:12;;;;;;;3.95;2.40;;;20.00;94.50;;;;;;5070638;28;20430;-77
2022/06/24 04:38:38;;;;;;;2.97;1.77;;;20.00;94.70;;;;;;5089692;28;20534;-77
2022/06/24 04:41:16;;;;;;;3.40;2.30;;;20.00;94.90;;;;;;5053195;28;20552;-79
2022/06/24 04:43:43;;;;;;;6.95;2.63;;;20.00;95.60;;;;;;5070804;28;20111;-76
2022/06/24 04:46:09;;;;;;;6.15;2.80;;;20.00;95.60;;;;;;5069003;28;20407;-76
2022/06/24 04:48:38;;;;;;;6.95;2.53;;;20.00;95.70;;;;;;5090843;28;20044;-77
2022/06/24 04:51:04;;;;;;;2.55;2.35;;;20.10;95.90;;;;;;5086079;28;20135;-77
2022/06/24 04:53:30;;;;;;;3.70;2.47;;;20.10;96.20;;;;;;5072763;28;20487;-76
2022/06/24 04:55:57;;;;;;;4.20;2.47;;;20.10;96.50;;;;;;5066479;28;20424;-76
2022/06/24 04:58:23;;;;;;;3.72;2.53;;;20.10;96.80;;;;;;5105683;28;20040;-76
2022/06/24 05:00:49;;;;;;;4.82;2.25;;;20.30;97.00;;;;;;5068333;28;20048;-76
2022/06/24 05:03:15;;;;;;;3.00;2.50;;;20.10;96.90;;;;;;5086581;28;20464;-77
2022/06/24 05:05:40;;;;;;;6.57;2.90;;;20.10;97.00;;;;;;5087127;28;20028;-76
2022/06/24 05:08:06;;;;;;;5.43;2.55;;;20.20;97.00;;;;;;5055338;28;20044;-77
2022/06/24 05:10:35;;;;;;;4.68;2.72;;;20.20;97.30;;;;;;5070848;28;20044;-75
2022/06/24 05:13:01;;;;;;;4.20;2.85;;;20.20;97.60;;;;;;5053742;28;20268;-77
2022/06/24 05:15:27;;;;;;;6.78;4.00;;;20.20;97.90;;;;;;5055212;28;20036;-76
2022/06/24 05:17:52;;;;;;;10.35;5.18;;;20.30;98.30;;;;;;5067933;28;20048;-76
2022/06/24 05:20:18;;;;;;;8.73;5.43;;;20.30;99.30;;;;;;5072359;28;20490;-77
2022/06/24 05:22:44;;;;;;;13.07;7.28;;;20.40;99.90;;;;;;5085303;28;20510;-76
2022/06/24 05:25:10;;;;;;;10.27;7.85;;;20.40;99.90;;;;;;5052686;28;20556;-76
2022/06/24 05:27:49;;;;;;;12.35;8.25;;;20.50;99.90;;;;;;5085039;28;20535;-77
2022/06/24 05:30:15;;;;;;;18.40;9.35;;;20.50;99.90;;;;;;5053004;28;20060;-77
2022/06/24 05:32:40;;;;;;;17.83;9.30;;;20.50;99.90;;;;;;5081881;28;20398;-76
2022/06/24 05:35:06;;;;;;;16.10;9.32;;;20.60;99.90;;;;;;5068707;28;20044;-76
2022/06/24 05:37:33;;;;;;;15.70;8.48;;;20.60;99.90;;;;;;5054051;28;20044;-76
2022/06/24 05:39:59;;;;;;;18.67;8.07;;;20.60;99.90;;;;;;5049717;28;20051;-76
2022/06/24 05:42:24;;;;;;;16.98;6.30;;;20.70;99.90;;;;;;5088169;28;20048;-76
2022/06/24 05:44:50;;;;;;;13.63;6.13;;;20.70;99.90;;;;;;5099984;28;20542;-76
2022/06/24 05:47:15;;;;;;;16.10;5.95;;;20.70;99.90;;;;;;5068239;28;20119;-76
2022/06/24 05:49:41;;;;;;;14.73;5.85;;;20.80;99.90;;;;;;5065769;28;20182;-77
2022/06/24 05:52:07;;;;;;;13.38;5.07;;;20.80;99.90;;;;;;5051303;28;20040;-76
2022/06/24 05:57:17;;;;;;;;;;;20.80;99.90;;;;;;5068527;28;20051;-78
2022/06/24 05:59:42;;;;;;;9.52;3.92;;;21.30;99.90;;;;;;5086773;28;19924;-77
2022/06/24 06:02:08;;;;;;;10.73;5.05;;;20.90;99.90;;;;;;5051007;28;20121;-77
2022/06/24 06:04:34;;;;;;;8.38;4.20;;;20.80;99.90;;;;;;5052210;28;20040;-77
2022/06/24 06:07:00;;;;;;;7.60;3.60;;;20.80;99.90;;;;;;5068629;28;20051;-76
2022/06/24 06:09:25;;;;;;;12.35;2.88;;;20.80;99.90;;;;;;5070661;28;20715;-76
2022/06/24 06:11:52;;;;;;;5.13;2.75;;;20.80;99.90;;;;;;5087722;28;20039;-76
2022/06/24 06:14:17;;;;;;;7.32;2.58;;;20.70;99.90;;;;;;5087679;28;20309;-76
2022/06/24 06:16:43;;;;;;;6.80;2.88;;;20.70;99.90;;;;;;5086880;28;20062;-78
2022/06/24 06:19:09;;;;;;;10.45;3.35;;;20.70;99.90;;;;;;5089002;28;20036;-78
2022/06/24 06:21:35;;;;;;;9.75;3.50;;;20.70;99.90;;;;;;5067027;28;20044;-77
2022/06/24 06:24:09;;;;;;;7.81;3.50;;;20.70;99.90;;;;;;4638067;28;10002848;-78
2022/06/24 06:26:34;;;;;;;15.27;7.22;;;20.80;99.90;;;;;;5024798;28;20045;-75
2022/06/24 06:29:00;;;;;;;9.35;3.65;;;20.50;99.90;;;;;;5027003;28;20658;-77
2022/06/24 06:31:26;;;;;;;10.00;3.97;;;20.50;99.90;;;;;;5046573;28;20106;-76
2022/06/24 06:33:51;;;;;;;4.60;3.10;;;20.30;99.90;;;;;;5060297;28;20056;-76
2022/06/24 06:36:17;;;;;;;5.38;3.33;;;20.30;99.90;;;;;;5045398;28;20037;-76
2022/06/24 06:38:43;;;;;;;4.00;2.83;;;20.20;99.90;;;;;;5044761;28;20444;-76
2022/06/24 06:41:09;;;;;;;4.60;3.15;;;20.10;99.90;;;;;;5045060;28;20060;-76
2022/06/24 06:43:34;;;;;;;4.10;2.70;;;20.10;99.90;;;;;;5043102;28;20040;-76
2022/06/24 06:46:00;;;;;;;5.90;3.33;;;20.10;99.90;;;;;;5026970;28;20431;-77
2022/06/24 06:48:26;;;;;;;4.72;3.53;;;20.20;99.90;;;;;;5021306;28;20075;-75
2022/06/24 06:50:59;;;;;;;5.05;3.20;;;20.30;99.90;;;;;;5041442;28;20436;-76
2022/06/24 06:53:26;;;;;;;4.40;2.75;;;20.30;99.90;;;;;;5027292;28;20049;-77
2022/06/24 06:55:53;;;;;;;3.90;2.78;;;20.40;99.90;;;;;;5043609;28;20041;-76
2022/06/24 06:58:19;;;;;;;9.43;3.08;;;20.40;99.90;;;;;;5044644;28;20045;-78
2022/06/24 07:00:45;;;;;;;5.85;2.78;;;20.40;99.90;;;;;;5044169;28;20044;-76
2022/06/24 07:03:11;;;;;;;6.97;3.42;;;20.40;99.90;;;;;;5046882;28;20090;-77
2022/06/24 07:05:36;;;;;;;2.95;2.70;;;20.50;99.90;;;;;;5047585;28;20480;-77
2022/06/24 07:08:03;;;;;;;7.25;3.17;;;20.50;99.90;;;;;;5050030;28;20483;-76
2022/06/24 07:10:29;;;;;;;3.15;2.85;;;20.50;99.90;;;;;;5051265;28;20075;-76
2022/06/24 07:12:54;;;;;;;6.35;3.80;;;20.50;99.90;;;;;;5049555;28;20088;-77
2022/06/24 07:15:20;;;;;;;4.53;3.92;;;20.70;99.90;;;;;;5033315;28;20139;-77
2022/06/24 07:17:46;;;;;;;6.53;4.32;;;20.50;99.90;;;;;;5028538;28;20047;-76
2022/06/24 07:20:14;;;;;;;6.43;3.33;;;20.50;99.90;;;;;;5046991;28;20369;-77
2022/06/24 07:22:40;;;;;;;4.10;3.20;;;20.90;99.90;;;;;;5046189;28;20123;-77
2022/06/24 07:25:06;;;;;;;5.75;3.20;;;20.50;99.90;;;;;;5050975;28;20543;-76
2022/06/24 07:27:32;;;;;;;5.72;3.45;;;20.40;99.90;;;;;;5053617;28;20488;-75
2022/06/24 07:29:58;;;;;;;7.53;3.75;;;20.40;99.90;;;;;;5045825;28;20049;-76
2022/06/24 07:32:23;;;;;;;6.00;3.42;;;20.40;99.90;;;;;;5051054;28;20048;-76
2022/06/24 07:34:49;;;;;;;4.82;3.80;;;20.40;99.90;;;;;;5051975;28;20033;-78
2022/06/24 07:37:15;;;;;;;6.18;4.10;;;20.40;99.90;;;;;;5033979;28;20086;-77
2022/06/24 07:39:40;;;;;;;6.25;3.30;;;20.20;99.90;;;;;;5035771;28;20123;-76
2022/06/24 07:42:06;;;;;;;7.55;3.88;;;20.20;99.90;;;;;;5051920;28;20120;-77
2022/06/24 07:44:32;;;;;;;4.22;3.35;;;20.20;99.90;;;;;;5052219;28;20307;-76
2022/06/24 07:46:58;;;;;;;3.70;3.30;;;20.20;99.90;;;;;;5051469;28;20071;-76
2022/06/24 07:49:24;;;;;;;5.28;3.90;;;20.20;99.90;;;;;;5050454;28;20476;-77
2022/06/24 07:51:50;;;;;;;5.50;4.30;;;20.50;99.90;;;;;;5033594;28;20528;-78
2022/06/24 07:54:15;;;;;;;4.53;3.85;;;20.20;99.90;;;;;;5032985;28;20044;-76
2022/06/24 07:56:59;;;;;;;8.00;4.60;;;20.00;99.90;;;;;;5053856;28;20442;-76
2022/06/24 07:59:33;;;;;;;4.53;3.80;;;20.10;99.90;;;;;;5050583;28;20052;-77
2022/06/24 08:02:01;;;;;;;5.95;4.15;;;20.30;99.90;;;;;;5051665;28;20148;-77
2022/06/24 08:04:30;;;;;;;4.47;3.67;;;20.70;99.90;;;;;;5051247;28;20071;-76
2022/06/24 08:06:56;;;;;;;4.75;4.15;;;20.20;99.90;;;;;;5049347;28;20114;-75
2022/06/24 08:09:25;;;;;;;7.15;4.53;;;20.10;99.90;;;;;;5048862;28;20040;-78
2022/06/24 08:11:52;;;;;;;6.82;3.88;;;20.10;99.90;;;;;;5046695;28;20052;-75
2022/06/24 08:14:18;;;;;;;4.60;4.20;;;20.00;99.90;;;;;;5048212;28;20064;-75
2022/06/24 08:16:44;;;;;;;5.13;3.42;;;20.00;99.90;;;;;;5029146;28;20061;-75
2022/06/24 08:19:10;;;;;;;5.97;3.75;;;20.00;99.90;;;;;;5047853;28;20045;-75
2022/06/24 08:21:36;;;;;;;4.57;4.15;;;20.10;99.90;;;;;;5032222;28;20043;-76
2022/06/24 08:24:03;;;;;;;5.28;4.38;;;20.00;99.90;;;;;;5055936;28;20391;-76
2022/06/24 08:26:29;;;;;;;6.53;4.90;;;20.10;99.90;;;;;;5067806;28;20510;-77
2022/06/24 08:28:56;;;;;;;4.63;3.85;;;20.10;99.90;;;;;;5068057;28;20521;-77
2022/06/24 08:31:22;;;;;;;4.50;3.92;;;19.90;99.90;;;;;;5052164;28;20513;-76
2022/06/24 08:33:47;;;;;;;6.15;4.47;;;19.90;99.90;;;;;;5063512;28;20037;-77
2022/06/24 08:36:13;;;;;;;6.25;4.47;;;20.00;99.90;;;;;;5050092;28;20385;-76
2022/06/24 08:38:39;;;;;;;11.63;4.55;;;20.00;99.90;;;;;;5067729;28;20052;-76
2022/06/24 08:41:04;;;;;;;6.82;4.53;;;20.00;99.90;;;;;;5068751;28;20131;-75
2022/06/24 08:43:33;;;;;;;5.43;4.28;;;20.00;99.90;;;;;;5062774;28;20037;-75
2022/06/24 08:46:00;;;;;;;4.72;3.35;;;20.00;99.90;;;;;;5067530;28;20036;-76
2022/06/24 08:48:31;;;;;;;5.15;3.60;;;20.00;99.90;;;;;;5067398;28;20544;-76
2022/06/24 08:50:59;;;;;;;5.40;3.13;;;19.90;99.90;;;;;;5064153;28;20124;-77
2022/06/24 08:53:27;;;;;;;6.93;3.45;;;19.90;99.90;;;;;;5050960;28;20105;-78
2022/06/24 08:55:54;;;;;;;4.93;3.35;;;19.90;99.90;;;;;;5045494;28;20048;-76
2022/06/24 08:58:20;;;;;;;4.47;3.55;;;19.90;99.90;;;;;;5066528;28;20139;-77
2022/06/24 09:00:47;;;;;;;6.75;4.20;;;19.80;99.90;;;;;;5062389;28;20510;-76
2022/06/24 09:03:13;;;;;;;9.73;5.18;;;19.90;99.90;;;;;;5069195;28;20071;-76
2022/06/24 09:05:40;;;;;;;5.95;4.68;;;19.90;99.90;;;;;;5068906;28;20036;-76
2022/06/24 09:08:10;;;;;;;6.13;4.72;;;19.80;99.90;;;;;;5066232;28;20052;-77
2022/06/24 09:10:38;;;;;;;8.77;4.93;;;19.80;99.90;;;;;;5049820;28;20056;-76
2022/06/24 09:13:04;;;;;;;5.55;4.32;;;19.90;99.90;;;;;;5067091;28;20056;-76
2022/06/24 09:15:30;;;;;;;10.27;5.50;;;19.80;99.90;;;;;;5048306;28;20071;-76
2022/06/24 09:17:56;;;;;;;6.90;4.78;;;19.80;99.90;;;;;;5068303;28;20044;-76
2022/06/24 09:20:24;;;;;;;4.80;4.40;;;19.90;99.90;;;;;;5065838;28;20044;-76
2022/06/24 09:23:00;;;;;;;5.75;4.43;;;19.80;99.90;;;;;;5066979;28;20344;-75
2022/06/24 09:25:26;;;;;;;5.85;4.65;;;19.80;99.90;;;;;;5086456;28;20048;-75
2022/06/24 09:27:52;;;;;;;9.60;5.28;;;19.80;99.90;;;;;;5069437;28;20051;-77
2022/06/24 09:30:18;;;;;;;7.47;4.80;;;19.80;99.90;;;;;;5067287;28;20391;-76
2022/06/24 09:32:54;;;;;;;5.38;4.43;;;19.70;99.90;;;;;;5066040;28;20036;-77
2022/06/24 09:35:22;;;;;;;7.78;4.80;;;19.80;99.90;;;;;;5069380;28;20032;-76
2022/06/24 09:37:50;;;;;;;4.97;4.55;;;19.70;99.90;;;;;;5070399;28;20115;-75
2022/06/24 09:40:27;;;;;;;5.70;4.75;;;19.70;99.90;;;;;;5053342;28;20044;-75
2022/06/24 09:43:05;;;;;;;4.40;4.00;;;19.60;99.90;;;;;;5066002;28;20039;-75
2022/06/24 09:45:49;;;;;;;10.27;4.30;;;20.40;99.90;;;;;;5070797;28;20040;-76
2022/06/24 09:48:29;;;;;;;9.18;5.78;;;19.70;99.90;;;;;;5064956;28;20492;-76
2022/06/24 09:51:05;;;;;;;7.18;6.32;;;19.70;99.90;;;;;;5084212;28;20071;-76
2022/06/24 09:53:36;;;;;;;8.63;5.55;;;19.60;99.90;;;;;;5088149;28;20040;-75
2022/06/24 09:56:04;;;;;;;5.07;4.55;;;19.60;99.90;;;;;;5052187;28;20040;-76
2022/06/24 09:58:30;;;;;;;8.32;5.03;;;19.50;99.90;;;;;;5076374;28;20071;-76
2022/06/24 10:00:56;;;;;;;9.45;5.10;;;19.50;99.90;;;;;;5069576;28;20048;-76
2022/06/24 10:03:22;;;;;;;10.25;6.53;;;19.50;99.90;;;;;;5088616;28;20077;-76
2022/06/24 10:05:49;;;;;;;11.57;6.75;;;19.90;99.90;;;;;;5069121;28;20078;-77
2022/06/24 10:08:23;;;;;;;8.38;5.60;;;20.00;99.90;;;;;;5068227;28;20036;-76
2022/06/24 10:10:49;;;;;;;8.77;5.93;;;19.40;99.90;;;;;;5069260;28;20040;-75
2022/06/24 10:13:25;;;;;;;7.60;5.07;;;19.30;99.90;;;;;;5068284;28;20043;-76
2022/06/24 10:15:53;;;;;;;6.45;5.40;;;19.20;99.90;;;;;;5065445;28;20032;-76
2022/06/24 10:18:20;;;;;;;9.15;6.00;;;19.10;99.90;;;;;;5085424;28;20135;-76
2022/06/24 10:20:47;;;;;;;5.32;4.72;;;19.10;99.90;;;;;;5068304;28;20526;-76
2022/06/24 10:23:35;;;;;;;4.38;3.97;;;18.90;99.90;;;;;;5070015;28;20499;-77
2022/06/24 10:26:16;;;;;;;4.32;3.92;;;18.90;99.90;;;;;;5083612;28;20121;-77
2022/06/24 10:29:00;;;;;;;10.00;4.50;;;18.90;99.90;;;;;;5048400;28;20045;-78
2022/06/24 10:31:54;;;;;;;5.03;4.18;;;18.80;99.90;;;;;;5070529;28;20077;-76
2022/06/24 10:34:22;;;;;;;3.95;3.67;;;18.70;99.90;;;;;;5069621;28;20056;-77
2022/06/24 10:36:49;;;;;;;6.22;3.53;;;18.60;99.90;;;;;;5049284;28;20040;-76
2022/06/24 10:39:17;;;;;;;3.17;2.40;;;18.60;99.90;;;;;;5086496;28;20459;-76
2022/06/24 10:41:44;;;;;;;5.20;2.88;;;18.50;99.90;;;;;;5065714;28;20097;-76
2022/06/24 10:44:24;;;;;;;4.78;2.78;;;18.40;99.90;;;;;;5086580;28;20050;-77
2022/06/24 10:47:08;;;;;;;4.30;2.83;;;18.40;99.90;;;;;;5063637;28;20047;-78
2022/06/24 10:49:55;;;;;;;3.15;2.85;;;18.30;99.90;;;;;;5084264;28;20683;-77
2022/06/24 10:52:36;;;;;;;3.97;2.80;;;18.30;99.90;;;;;;5070911;28;20052;-78
2022/06/24 10:55:29;;;;;;;4.88;2.75;;;18.30;99.90;;;;;;5068185;28;20043;-78
2022/06/24 10:58:13;;;;;;;2.85;2.63;;;18.20;99.90;;;;;;5066406;28;20044;-79
2022/06/24 11:00:39;;;;;;;3.47;3.10;;;18.20;99.90;;;;;;5063130;28;20396;-78
2022/06/24 11:03:05;;;;;;;3.92;2.75;;;18.20;99.90;;;;;;5048441;28;20376;-80
2022/06/24 11:05:51;;;;;;;2.80;2.05;;;18.10;99.90;;;;;;5066704;28;20131;-80
2022/06/24 11:08:21;;;;;;;1.92;1.83;;;18.20;99.90;;;;;;5087913;28;20580;-79
2022/06/24 11:10:48;;;;;;;3.65;1.85;;;18.50;99.90;;;;;;5048309;28;20024;-79
2022/06/24 11:13:14;;;;;;;3.92;1.98;;;18.10;99.90;;;;;;5065531;28;20105;-78
2022/06/24 11:15:48;;;;;;;2.17;1.75;;;18.10;99.90;;;;;;5060348;28;20036;-76
2022/06/24 11:18:27;;;;;;;;;;;18.00;99.90;;;;;;5063137;28;20407;-76
2022/06/24 11:21:03;;;;;;;4.32;2.50;;;18.10;99.90;;;;;;5085859;28;19928;-76
2022/06/24 11:23:31;;;;;;;2.40;2.20;;;18.10;99.90;;;;;;5069366;28;20078;-77
2022/06/24 11:26:06;;;;;;;3.97;2.97;;;18.10;99.90;;;;;;5052817;28;20062;-80
2022/06/24 11:28:37;;;;;;;2.78;2.58;;;18.70;99.90;;;;;;5081279;28;20090;-76
2022/06/24 11:31:23;;;;;;;5.93;3.17;;;18.10;99.90;;;;;;5087425;28;20573;-79
2022/06/24 11:34:07;;;;;;;3.58;2.65;;;18.40;99.90;;;;;;5083885;28;20089;-77
2022/06/24 11:36:34;;;;;;;3.70;2.80;;;18.20;99.90;;;;;;5068685;28;20166;-76
2022/06/24 11:39:04;;;;;;;3.80;2.63;;;17.70;99.90;;;;;;5068752;28;20399;-77
2022/06/24 11:41:45;;;;;;;3.53;2.75;;;18.20;99.90;;;;;;5068919;28;20036;-76
2022/06/24 11:44:11;;;;;;;3.80;2.83;;;18.40;99.90;;;;;;5073132;28;20040;-77
2022/06/24 11:46:36;;;;;;;3.75;3.03;;;18.20;99.90;;;;;;5101756;28;20452;-77
2022/06/24 11:49:07;;;;;;;3.30;3.00;;;18.20;99.90;;;;;;5086900;28;20032;-77
2022/06/24 11:51:34;;;;;;;4.22;3.03;;;18.20;99.90;;;;;;5063235;28;20043;-76
2022/06/24 11:54:04;;;;;;;3.22;2.88;;;18.40;99.90;;;;;;5071317;28;20048;-75
2022/06/24 11:56:32;;;;;;;6.63;3.45;;;18.30;99.90;;;;;;5071617;28;20118;-77
2022/06/24 11:59:00;;;;;;;4.80;4.03;;;18.30;99.90;;;;;;5083350;28;20055;-77
2022/06/24 12:01:27;;;;;;;3.53;2.80;;;18.30;99.90;;;;;;5054995;28;20040;-77
2022/06/24 12:03:56;;;;;;;5.85;3.63;;;18.40;99.90;;;;;;5081098;28;20394;-77
2022/06/24 12:06:22;;;;;;;6.60;3.70;;;19.00;99.90;;;;;;5106341;28;20044;-78
2022/06/24 12:08:49;;;;;;;3.40;3.10;;;18.40;99.90;;;;;;5055004;28;20529;-78
2022/06/24 12:11:22;;;;;;;4.32;3.53;;;18.80;99.90;;;;;;5090064;28;20391;-80
2022/06/24 12:14:05;;;;;;;4.82;3.40;;;19.20;99.90;;;;;;5071070;28;20044;-80
2022/06/24 12:17:06;;;;;;;4.25;3.83;;;18.60;99.90;;;;;;5072072;28;20052;-78
2022/06/24 12:19:34;;;;;;;5.55;3.65;;;18.60;99.90;;;;;;5083283;28;20048;-77
2022/06/24 12:22:11;;;;;;;4.57;3.97;;;18.70;99.90;;;;;;5055793;28;20032;-80
2022/06/24 12:24:38;;;;;;;4.55;4.15;;;18.70;99.90;;;;;;5054083;28;20052;-80
2022/06/24 12:27:06;;;;;;;5.28;4.63;;;18.90;99.90;;;;;;5071774;28;20090;-81
2022/06/24 12:29:35;;;;;;;6.38;5.10;;;18.80;99.90;;;;;;5072723;28;20059;-79
2022/06/24 12:32:06;;;;;;;4.80;4.38;;;18.90;99.90;;;;;;5055163;28;20051;-76
2022/06/24 12:34:37;;;;;;;7.70;5.75;;;18.90;99.90;;;;;;5052050;28;20747;-77
2022/06/24 12:37:09;;;;;;;10.27;5.75;;;19.00;99.90;;;;;;5050382;28;20105;-77
2022/06/24 12:39:39;;;;;;;5.97;5.22;;;19.00;99.90;;;;;;5071385;28;20043;-79
2022/06/24 12:42:06;;;;;;;7.22;6.00;;;19.60;99.90;;;;;;5069453;28;20036;-79
2022/06/24 12:44:43;;;;;;;6.13;5.63;;;19.10;99.90;;;;;;5072445;28;20457;-79
2022/06/24 12:52:44;;;;;;;7.30;6.70;;;19.30;99.90;;;;;;5063224;28;20040;-79
2022/06/24 12:55:12;;;;;;;11.25;7.88;;;19.30;99.90;;;;;;5070835;28;20068;-81
2022/06/24 12:57:38;;;;;;;10.13;9.32;;;19.40;99.90;;;;;;5054415;28;20043;-77
2022/06/24 13:00:08;;;;;;;12.05;10.77;;;19.50;99.90;;;;;;5070801;28;20036;-77
2022/06/24 13:02:35;;;;;;;13.32;12.13;;;19.60;99.90;;;;;;5069090;28;20044;-77
2022/06/24 13:05:02;;;;;;;13.77;12.43;;;19.60;99.90;;;;;;5083749;28;20040;-78